sensor_id;sensor_type;location;lat;lon;timestamp;P1;durP1;ratioP1;P2;durP2;ratioP2
11490;SDS011;5802;52.832;4.758;2023-05-15T00:01:18;5.57;;;2.38;;
11490;SDS011;5802;52.832;4.758;2023-05-15T00:03:45;5.13;;;1.80;;
11490;SDS011;5802;52.832;4.758;2023-05-15T00:06:13;5.20;;;1.90;;
11490;SDS011;5802;52.832;4.758;2023-05-15T00:08:40;4.75;;;1.98;;
11490;SDS011;5802;52.832;4.758;2023-05-15T00:11:06;4.78;;;2.10;;
11490;SDS011;5802;52.832;4.758;2023-05-15T00:13:34;3.30;;;1.92;;
11490;SDS011;5802;52.832;4.758;2023-05-15T00:16:02;2.65;;;2.03;;
11490;SDS011;5802;52.832;4.758;2023-05-15T00:18:29;7.82;;;2.15;;
11490;SDS011;5802;52.832;4.758;2023-05-15T00:20:56;5.10;;;1.80;;
11490;SDS011;5802;52.832;4.758;2023-05-15T00:23:22;2.60;;;1.55;;
11490;SDS011;5802;52.832;4.758;2023-05-15T00:25:49;2.85;;;1.70;;
11490;SDS011;5802;52.832;4.758;2023-05-15T00:28:16;2.75;;;1.98;;
11490;SDS011;5802;52.832;4.758;2023-05-15T00:30:44;2.65;;;2.00;;
11490;SDS011;5802;52.832;4.758;2023-05-15T00:33:11;2.72;;;1.80;;
11490;SDS011;5802;52.832;4.758;2023-05-15T00:35:38;3.13;;;1.63;;
11490;SDS011;5802;52.832;4.758;2023-05-15T00:38:04;3.42;;;1.70;;
11490;SDS011;5802;52.832;4.758;2023-05-15T00:40:31;2.25;;;1.60;;
11490;SDS011;5802;52.832;4.758;2023-05-15T00:42:59;3.42;;;1.80;;
11490;SDS011;5802;52.832;4.758;2023-05-15T00:45:27;1.95;;;1.60;;
11490;SDS011;5802;52.832;4.758;2023-05-15T00:47:55;3.63;;;1.80;;
11490;SDS011;5802;52.832;4.758;2023-05-15T00:50:23;3.67;;;1.67;;
11490;SDS011;5802;52.832;4.758;2023-05-15T00:52:50;3.20;;;1.95;;
11490;SDS011;5802;52.832;4.758;2023-05-15T00:55:18;3.50;;;1.70;;
11490;SDS011;5802;52.832;4.758;2023-05-15T00:57:44;3.90;;;1.83;;
11490;SDS011;5802;52.832;4.758;2023-05-15T01:00:14;4.10;;;1.75;;
11490;SDS011;5802;52.832;4.758;2023-05-15T01:02:42;2.00;;;1.48;;
11490;SDS011;5802;52.832;4.758;2023-05-15T01:05:11;3.78;;;1.88;;
11490;SDS011;5802;52.832;4.758;2023-05-15T01:07:39;3.63;;;1.60;;
11490;SDS011;5802;52.832;4.758;2023-05-15T01:10:13;2.60;;;1.70;;
11490;SDS011;5802;52.832;4.758;2023-05-15T01:12:41;2.15;;;1.80;;
11490;SDS011;5802;52.832;4.758;2023-05-15T01:15:11;2.78;;;1.48;;
11490;SDS011;5802;52.832;4.758;2023-05-15T01:17:37;2.28;;;1.60;;
11490;SDS011;5802;52.832;4.758;2023-05-15T01:20:04;3.15;;;1.60;;
11490;SDS011;5802;52.832;4.758;2023-05-15T01:25:33;2.20;;;1.70;;
11490;SDS011;5802;52.832;4.758;2023-05-15T01:28:12;1.65;;;1.30;;
11490;SDS011;5802;52.832;4.758;2023-05-15T01:30:44;2.90;;;1.65;;
11490;SDS011;5802;52.832;4.758;2023-05-15T01:33:14;2.22;;;1.63;;
11490;SDS011;5802;52.832;4.758;2023-05-15T01:35:47;2.63;;;1.40;;
11490;SDS011;5802;52.832;4.758;2023-05-15T01:38:23;1.50;;;1.40;;
11490;SDS011;5802;52.832;4.758;2023-05-15T01:40:58;2.47;;;1.83;;
11490;SDS011;5802;52.832;4.758;2023-05-15T01:43:32;2.88;;;1.45;;
11490;SDS011;5802;52.832;4.758;2023-05-15T01:46:02;2.10;;;1.55;;
11490;SDS011;5802;52.832;4.758;2023-05-15T01:48:32;2.03;;;1.63;;
11490;SDS011;5802;52.832;4.758;2023-05-15T01:51:01;1.75;;;1.60;;
11490;SDS011;5802;52.832;4.758;2023-05-15T01:53:31;2.45;;;1.63;;
11490;SDS011;5802;52.832;4.758;2023-05-15T01:55:58;2.47;;;1.58;;
11490;SDS011;5802;52.832;4.758;2023-05-15T01:58:25;2.55;;;1.70;;
11490;SDS011;5802;52.832;4.758;2023-05-15T02:00:54;1.60;;;1.50;;
11490;SDS011;5802;52.832;4.758;2023-05-15T02:03:22;3.28;;;1.70;;
11490;SDS011;5802;52.832;4.758;2023-05-15T02:05:50;1.98;;;1.60;;
11490;SDS011;5802;52.832;4.758;2023-05-15T02:08:20;2.28;;;1.80;;
11490;SDS011;5802;52.832;4.758;2023-05-15T02:10:49;1.50;;;1.40;;
11490;SDS011;5802;52.832;4.758;2023-05-15T02:13:17;2.13;;;1.50;;
11490;SDS011;5802;52.832;4.758;2023-05-15T02:15:44;1.85;;;1.50;;
11490;SDS011;5802;52.832;4.758;2023-05-15T02:18:12;4.43;;;1.75;;
11490;SDS011;5802;52.832;4.758;2023-05-15T02:20:39;1.98;;;1.70;;
11490;SDS011;5802;52.832;4.758;2023-05-15T02:23:06;1.70;;;1.60;;
11490;SDS011;5802;52.832;4.758;2023-05-15T02:25:33;2.10;;;1.40;;
11490;SDS011;5802;52.832;4.758;2023-05-15T02:28:06;1.90;;;1.55;;
11490;SDS011;5802;52.832;4.758;2023-05-15T02:30:39;2.55;;;1.60;;
11490;SDS011;5802;52.832;4.758;2023-05-15T02:33:17;2.20;;;1.70;;
11490;SDS011;5802;52.832;4.758;2023-05-15T02:35:55;4.18;;;1.55;;
11490;SDS011;5802;52.832;4.758;2023-05-15T02:38:28;3.00;;;1.85;;
11490;SDS011;5802;52.832;4.758;2023-05-15T02:40:57;2.80;;;1.60;;
11490;SDS011;5802;52.832;4.758;2023-05-15T02:43:26;1.95;;;1.60;;
11490;SDS011;5802;52.832;4.758;2023-05-15T02:45:54;4.25;;;2.03;;
11490;SDS011;5802;52.832;4.758;2023-05-15T02:48:23;3.97;;;1.70;;
11490;SDS011;5802;52.832;4.758;2023-05-15T02:50:50;1.70;;;1.50;;
11490;SDS011;5802;52.832;4.758;2023-05-15T02:53:17;4.25;;;1.80;;
11490;SDS011;5802;52.832;4.758;2023-05-15T02:55:44;3.10;;;1.75;;
11490;SDS011;5802;52.832;4.758;2023-05-15T02:58:11;2.10;;;1.60;;
11490;SDS011;5802;52.832;4.758;2023-05-15T03:00:37;3.15;;;1.83;;
11490;SDS011;5802;52.832;4.758;2023-05-15T03:03:04;2.03;;;1.55;;
11490;SDS011;5802;52.832;4.758;2023-05-15T03:05:32;2.17;;;1.88;;
11490;SDS011;5802;52.832;4.758;2023-05-15T03:07:59;2.63;;;1.65;;
11490;SDS011;5802;52.832;4.758;2023-05-15T03:10:25;2.15;;;1.77;;
11490;SDS011;5802;52.832;4.758;2023-05-15T03:12:53;2.90;;;1.80;;
11490;SDS011;5802;52.832;4.758;2023-05-15T03:15:22;1.92;;;1.73;;
11490;SDS011;5802;52.832;4.758;2023-05-15T03:17:49;3.40;;;1.90;;
11490;SDS011;5802;52.832;4.758;2023-05-15T03:20:15;1.90;;;1.70;;
11490;SDS011;5802;52.832;4.758;2023-05-15T03:22:44;2.28;;;1.75;;
11490;SDS011;5802;52.832;4.758;2023-05-15T03:25:10;2.53;;;1.80;;
11490;SDS011;5802;52.832;4.758;2023-05-15T03:27:37;3.05;;;2.00;;
11490;SDS011;5802;52.832;4.758;2023-05-15T03:30:04;2.38;;;1.70;;
11490;SDS011;5802;52.832;4.758;2023-05-15T03:32:32;2.60;;;1.92;;
11490;SDS011;5802;52.832;4.758;2023-05-15T03:34:59;2.42;;;1.90;;
11490;SDS011;5802;52.832;4.758;2023-05-15T03:37:25;2.08;;;1.75;;
11490;SDS011;5802;52.832;4.758;2023-05-15T03:39:53;3.22;;;1.83;;
11490;SDS011;5802;52.832;4.758;2023-05-15T03:42:20;2.13;;;1.70;;
11490;SDS011;5802;52.832;4.758;2023-05-15T03:44:48;2.67;;;1.80;;
11490;SDS011;5802;52.832;4.758;2023-05-15T03:47:16;2.85;;;1.58;;
11490;SDS011;5802;52.832;4.758;2023-05-15T03:49:43;1.90;;;1.58;;
11490;SDS011;5802;52.832;4.758;2023-05-15T03:52:10;2.20;;;2.00;;
11490;SDS011;5802;52.832;4.758;2023-05-15T03:54:38;3.38;;;1.90;;
11490;SDS011;5802;52.832;4.758;2023-05-15T03:57:07;2.00;;;1.80;;
11490;SDS011;5802;52.832;4.758;2023-05-15T03:59:33;1.95;;;1.75;;
11490;SDS011;5802;52.832;4.758;2023-05-15T04:02:00;2.67;;;2.10;;
11490;SDS011;5802;52.832;4.758;2023-05-15T04:04:27;2.28;;;1.85;;
11490;SDS011;5802;52.832;4.758;2023-05-15T04:06:53;2.72;;;1.90;;
11490;SDS011;5802;52.832;4.758;2023-05-15T04:09:20;1.77;;;1.65;;
11490;SDS011;5802;52.832;4.758;2023-05-15T04:11:47;2.60;;;1.90;;
11490;SDS011;5802;52.832;4.758;2023-05-15T04:14:14;3.38;;;1.80;;
11490;SDS011;5802;52.832;4.758;2023-05-15T04:16:41;2.85;;;1.70;;
11490;SDS011;5802;52.832;4.758;2023-05-15T04:19:08;2.17;;;1.65;;
11490;SDS011;5802;52.832;4.758;2023-05-15T04:21:34;2.50;;;1.88;;
11490;SDS011;5802;52.832;4.758;2023-05-15T04:24:01;4.65;;;1.70;;
11490;SDS011;5802;52.832;4.758;2023-05-15T04:26:28;3.50;;;1.92;;
11490;SDS011;5802;52.832;4.758;2023-05-15T04:28:55;3.03;;;1.83;;
11490;SDS011;5802;52.832;4.758;2023-05-15T04:31:23;2.28;;;1.85;;
11490;SDS011;5802;52.832;4.758;2023-05-15T04:33:51;1.58;;;1.40;;
11490;SDS011;5802;52.832;4.758;2023-05-15T04:36:17;2.13;;;1.60;;
11490;SDS011;5802;52.832;4.758;2023-05-15T04:38:44;2.00;;;1.80;;
11490;SDS011;5802;52.832;4.758;2023-05-15T04:41:11;2.05;;;1.70;;
11490;SDS011;5802;52.832;4.758;2023-05-15T04:43:38;1.98;;;1.60;;
11490;SDS011;5802;52.832;4.758;2023-05-15T04:46:04;2.28;;;1.75;;
11490;SDS011;5802;52.832;4.758;2023-05-15T04:48:32;2.65;;;1.90;;
11490;SDS011;5802;52.832;4.758;2023-05-15T04:50:59;3.50;;;1.67;;
11490;SDS011;5802;52.832;4.758;2023-05-15T04:53:26;1.70;;;1.40;;
11490;SDS011;5802;52.832;4.758;2023-05-15T04:55:52;1.92;;;1.60;;
11490;SDS011;5802;52.832;4.758;2023-05-15T04:58:19;1.92;;;1.50;;
11490;SDS011;5802;52.832;4.758;2023-05-15T05:00:46;1.90;;;1.70;;
11490;SDS011;5802;52.832;4.758;2023-05-15T05:03:12;1.60;;;1.48;;
11490;SDS011;5802;52.832;4.758;2023-05-15T05:05:40;1.67;;;1.50;;
11490;SDS011;5802;52.832;4.758;2023-05-15T05:08:08;1.85;;;1.73;;
11490;SDS011;5802;52.832;4.758;2023-05-15T05:10:35;2.67;;;1.65;;
11490;SDS011;5802;52.832;4.758;2023-05-15T05:13:01;1.70;;;1.60;;
11490;SDS011;5802;52.832;4.758;2023-05-15T05:15:28;2.97;;;1.65;;
11490;SDS011;5802;52.832;4.758;2023-05-15T05:17:55;2.15;;;1.73;;
11490;SDS011;5802;52.832;4.758;2023-05-15T05:20:21;1.55;;;1.45;;
11490;SDS011;5802;52.832;4.758;2023-05-15T05:22:49;1.70;;;1.52;;
11490;SDS011;5802;52.832;4.758;2023-05-15T05:25:16;3.35;;;1.65;;
11490;SDS011;5802;52.832;4.758;2023-05-15T05:27:43;1.70;;;1.60;;
11490;SDS011;5802;52.832;4.758;2023-05-15T05:30:10;2.30;;;1.75;;
11490;SDS011;5802;52.832;4.758;2023-05-15T05:32:37;4.63;;;1.60;;
11490;SDS011;5802;52.832;4.758;2023-05-15T05:35:04;1.90;;;1.52;;
11490;SDS011;5802;52.832;4.758;2023-05-15T05:37:31;3.95;;;1.70;;
11490;SDS011;5802;52.832;4.758;2023-05-15T05:39:59;1.52;;;1.30;;
11490;SDS011;5802;52.832;4.758;2023-05-15T05:42:25;3.22;;;1.83;;
11490;SDS011;5802;52.832;4.758;2023-05-15T05:44:52;2.75;;;1.98;;
11490;SDS011;5802;52.832;4.758;2023-05-15T05:47:19;3.63;;;1.85;;
11490;SDS011;5802;52.832;4.758;2023-05-15T05:49:45;2.55;;;1.65;;
11490;SDS011;5802;52.832;4.758;2023-05-15T05:52:12;1.52;;;1.42;;
11490;SDS011;5802;52.832;4.758;2023-05-15T05:54:39;2.53;;;1.83;;
11490;SDS011;5802;52.832;4.758;2023-05-15T05:57:08;1.80;;;1.60;;
11490;SDS011;5802;52.832;4.758;2023-05-15T05:59:34;1.70;;;1.60;;
11490;SDS011;5802;52.832;4.758;2023-05-15T06:02:01;1.60;;;1.50;;
11490;SDS011;5802;52.832;4.758;2023-05-15T06:04:29;2.08;;;1.50;;
11490;SDS011;5802;52.832;4.758;2023-05-15T06:06:56;2.00;;;1.80;;
11490;SDS011;5802;52.832;4.758;2023-05-15T06:09:23;2.55;;;1.70;;
11490;SDS011;5802;52.832;4.758;2023-05-15T06:11:50;2.15;;;1.67;;
11490;SDS011;5802;52.832;4.758;2023-05-15T06:14:18;1.92;;;1.58;;
11490;SDS011;5802;52.832;4.758;2023-05-15T06:16:44;3.75;;;1.52;;
11490;SDS011;5802;52.832;4.758;2023-05-15T06:19:11;3.83;;;1.92;;
11490;SDS011;5802;52.832;4.758;2023-05-15T06:21:38;4.20;;;1.75;;
11490;SDS011;5802;52.832;4.758;2023-05-15T06:24:05;3.97;;;1.92;;
11490;SDS011;5802;52.832;4.758;2023-05-15T06:26:31;2.35;;;1.80;;
11490;SDS011;5802;52.832;4.758;2023-05-15T06:28:58;3.58;;;1.80;;
11490;SDS011;5802;52.832;4.758;2023-05-15T06:31:26;4.20;;;2.08;;
11490;SDS011;5802;52.832;4.758;2023-05-15T06:33:53;3.78;;;2.05;;
11490;SDS011;5802;52.832;4.758;2023-05-15T06:36:19;5.47;;;2.08;;
11490;SDS011;5802;52.832;4.758;2023-05-15T06:38:46;3.38;;;2.17;;
11490;SDS011;5802;52.832;4.758;2023-05-15T06:41:13;4.47;;;2.13;;
11490;SDS011;5802;52.832;4.758;2023-05-15T06:43:39;2.95;;;1.85;;
11490;SDS011;5802;52.832;4.758;2023-05-15T06:46:06;2.85;;;1.80;;
11490;SDS011;5802;52.832;4.758;2023-05-15T06:48:34;5.05;;;1.80;;
11490;SDS011;5802;52.832;4.758;2023-05-15T06:51:01;2.22;;;2.03;;
11490;SDS011;5802;52.832;4.758;2023-05-15T06:53:28;3.08;;;1.95;;
11490;SDS011;5802;52.832;4.758;2023-05-15T06:55:55;3.50;;;1.90;;
11490;SDS011;5802;52.832;4.758;2023-05-15T06:58:22;2.28;;;1.77;;
11490;SDS011;5802;52.832;4.758;2023-05-15T07:00:49;2.20;;;2.00;;
11490;SDS011;5802;52.832;4.758;2023-05-15T07:03:16;2.20;;;1.77;;
11490;SDS011;5802;52.832;4.758;2023-05-15T07:05:44;2.40;;;1.80;;
11490;SDS011;5802;52.832;4.758;2023-05-15T07:08:11;2.78;;;1.83;;
11490;SDS011;5802;52.832;4.758;2023-05-15T07:10:37;2.10;;;1.88;;
11490;SDS011;5802;52.832;4.758;2023-05-15T07:13:04;5.07;;;1.90;;
11490;SDS011;5802;52.832;4.758;2023-05-15T07:15:31;2.15;;;1.95;;
11490;SDS011;5802;52.832;4.758;2023-05-15T07:17:57;2.67;;;1.95;;
11490;SDS011;5802;52.832;4.758;2023-05-15T07:20:24;2.63;;;1.92;;
11490;SDS011;5802;52.832;4.758;2023-05-15T07:22:52;3.22;;;2.20;;
11490;SDS011;5802;52.832;4.758;2023-05-15T07:25:19;3.92;;;2.17;;
11490;SDS011;5802;52.832;4.758;2023-05-15T07:27:46;3.60;;;3.17;;
11490;SDS011;5802;52.832;4.758;2023-05-15T07:30:13;4.38;;;3.60;;
11490;SDS011;5802;52.832;4.758;2023-05-15T07:32:40;4.88;;;3.25;;
11490;SDS011;5802;52.832;4.758;2023-05-15T07:35:07;7.57;;;3.22;;
11490;SDS011;5802;52.832;4.758;2023-05-15T07:37:35;4.35;;;2.90;;
11490;SDS011;5802;52.832;4.758;2023-05-15T07:40:04;5.93;;;3.38;;
11490;SDS011;5802;52.832;4.758;2023-05-15T07:42:31;8.20;;;2.80;;
11490;SDS011;5802;52.832;4.758;2023-05-15T07:44:58;5.53;;;2.80;;
11490;SDS011;5802;52.832;4.758;2023-05-15T07:47:24;5.65;;;2.25;;
11490;SDS011;5802;52.832;4.758;2023-05-15T07:49:51;4.57;;;2.83;;
11490;SDS011;5802;52.832;4.758;2023-05-15T07:52:18;3.55;;;2.60;;
11490;SDS011;5802;52.832;4.758;2023-05-15T07:54:44;4.93;;;2.70;;
11490;SDS011;5802;52.832;4.758;2023-05-15T07:57:12;4.53;;;2.97;;
11490;SDS011;5802;52.832;4.758;2023-05-15T07:59:39;6.88;;;2.70;;
11490;SDS011;5802;52.832;4.758;2023-05-15T08:02:06;4.10;;;2.63;;
11490;SDS011;5802;52.832;4.758;2023-05-15T08:04:32;4.60;;;2.40;;
11490;SDS011;5802;52.832;4.758;2023-05-15T08:06:59;4.60;;;3.00;;
11490;SDS011;5802;52.832;4.758;2023-05-15T08:09:26;4.88;;;2.63;;
11490;SDS011;5802;52.832;4.758;2023-05-15T08:11:54;4.82;;;2.78;;
11490;SDS011;5802;52.832;4.758;2023-05-15T08:14:22;4.93;;;2.65;;
11490;SDS011;5802;52.832;4.758;2023-05-15T08:16:49;5.55;;;3.08;;
11490;SDS011;5802;52.832;4.758;2023-05-15T08:19:15;4.30;;;2.88;;
11490;SDS011;5802;52.832;4.758;2023-05-15T08:21:43;5.15;;;2.75;;
11490;SDS011;5802;52.832;4.758;2023-05-15T08:24:09;3.38;;;2.60;;
11490;SDS011;5802;52.832;4.758;2023-05-15T08:26:36;3.13;;;2.50;;
11490;SDS011;5802;52.832;4.758;2023-05-15T08:29:03;3.42;;;2.42;;
11490;SDS011;5802;52.832;4.758;2023-05-15T08:31:31;5.00;;;2.67;;
11490;SDS011;5802;52.832;4.758;2023-05-15T08:33:57;4.25;;;2.65;;
11490;SDS011;5802;52.832;4.758;2023-05-15T08:36:24;2.83;;;2.50;;
11490;SDS011;5802;52.832;4.758;2023-05-15T08:38:51;3.85;;;2.58;;
11490;SDS011;5802;52.832;4.758;2023-05-15T08:41:20;3.28;;;2.15;;
11490;SDS011;5802;52.832;4.758;2023-05-15T08:43:55;3.65;;;2.40;;
11490;SDS011;5802;52.832;4.758;2023-05-15T08:46:23;3.70;;;2.92;;
11490;SDS011;5802;52.832;4.758;2023-05-15T08:48:51;3.85;;;2.65;;
11490;SDS011;5802;52.832;4.758;2023-05-15T08:51:19;4.32;;;2.80;;
11490;SDS011;5802;52.832;4.758;2023-05-15T08:53:47;4.80;;;2.85;;
11490;SDS011;5802;52.832;4.758;2023-05-15T08:56:14;4.78;;;3.05;;
11490;SDS011;5802;52.832;4.758;2023-05-15T08:58:42;3.30;;;2.80;;
11490;SDS011;5802;52.832;4.758;2023-05-15T09:01:09;3.30;;;2.70;;
11490;SDS011;5802;52.832;4.758;2023-05-15T09:03:37;4.35;;;2.70;;
11490;SDS011;5802;52.832;4.758;2023-05-15T09:06:05;4.60;;;3.00;;
11490;SDS011;5802;52.832;4.758;2023-05-15T09:08:34;5.35;;;3.10;;
11490;SDS011;5802;52.832;4.758;2023-05-15T09:11:01;4.78;;;2.78;;
11490;SDS011;5802;52.832;4.758;2023-05-15T09:13:29;4.47;;;3.15;;
11490;SDS011;5802;52.832;4.758;2023-05-15T09:15:55;3.53;;;3.03;;
11490;SDS011;5802;52.832;4.758;2023-05-15T09:18:22;5.20;;;2.90;;
11490;SDS011;5802;52.832;4.758;2023-05-15T09:20:50;4.65;;;3.63;;
11490;SDS011;5802;52.832;4.758;2023-05-15T09:25:59;4.93;;;3.13;;
11490;SDS011;5802;52.832;4.758;2023-05-15T09:28:27;4.28;;;2.83;;
11490;SDS011;5802;52.832;4.758;2023-05-15T09:30:56;7.03;;;3.10;;
11490;SDS011;5802;52.832;4.758;2023-05-15T09:33:28;6.75;;;2.85;;
11490;SDS011;5802;52.832;4.758;2023-05-15T09:35:56;5.97;;;3.10;;
11490;SDS011;5802;52.832;4.758;2023-05-15T09:38:23;3.65;;;2.78;;
11490;SDS011;5802;52.832;4.758;2023-05-15T09:40:51;3.95;;;2.88;;
11490;SDS011;5802;52.832;4.758;2023-05-15T09:43:27;3.47;;;2.63;;
11490;SDS011;5802;52.832;4.758;2023-05-15T09:45:53;3.78;;;3.00;;
11490;SDS011;5802;52.832;4.758;2023-05-15T09:48:21;4.25;;;2.85;;
11490;SDS011;5802;52.832;4.758;2023-05-15T09:50:48;3.50;;;3.00;;
11490;SDS011;5802;52.832;4.758;2023-05-15T09:53:15;4.43;;;2.60;;
11490;SDS011;5802;52.832;4.758;2023-05-15T09:55:42;3.78;;;2.47;;
11490;SDS011;5802;52.832;4.758;2023-05-15T09:58:10;4.60;;;3.00;;
11490;SDS011;5802;52.832;4.758;2023-05-15T10:00:39;5.07;;;2.70;;
11490;SDS011;5802;52.832;4.758;2023-05-15T10:03:07;4.85;;;2.63;;
11490;SDS011;5802;52.832;4.758;2023-05-15T10:05:34;6.90;;;3.00;;
11490;SDS011;5802;52.832;4.758;2023-05-15T10:08:01;3.67;;;2.80;;
11490;SDS011;5802;52.832;4.758;2023-05-15T10:10:29;4.20;;;2.70;;
11490;SDS011;5802;52.832;4.758;2023-05-15T10:12:57;3.72;;;2.60;;
11490;SDS011;5802;52.832;4.758;2023-05-15T10:15:28;3.20;;;2.55;;
11490;SDS011;5802;52.832;4.758;2023-05-15T10:17:55;5.25;;;2.72;;
11490;SDS011;5802;52.832;4.758;2023-05-15T10:20:24;9.38;;;3.60;;
11490;SDS011;5802;52.832;4.758;2023-05-15T10:22:52;10.40;;;3.35;;
11490;SDS011;5802;52.832;4.758;2023-05-15T10:25:22;8.75;;;3.20;;
11490;SDS011;5802;52.832;4.758;2023-05-15T10:27:58;9.15;;;3.00;;
11490;SDS011;5802;52.832;4.758;2023-05-15T10:30:25;9.07;;;3.45;;
11490;SDS011;5802;52.832;4.758;2023-05-15T10:32:54;15.15;;;3.35;;
11490;SDS011;5802;52.832;4.758;2023-05-15T10:35:21;6.80;;;3.90;;
11490;SDS011;5802;52.832;4.758;2023-05-15T10:37:48;5.68;;;4.35;;
11490;SDS011;5802;52.832;4.758;2023-05-15T10:40:15;6.80;;;4.85;;
11490;SDS011;5802;52.832;4.758;2023-05-15T10:42:43;6.88;;;4.32;;
11490;SDS011;5802;52.832;4.758;2023-05-15T10:45:10;7.32;;;5.38;;
11490;SDS011;5802;52.832;4.758;2023-05-15T10:47:38;8.05;;;4.88;;
11490;SDS011;5802;52.832;4.758;2023-05-15T10:50:08;7.07;;;4.70;;
11490;SDS011;5802;52.832;4.758;2023-05-15T10:52:37;6.93;;;4.55;;
11490;SDS011;5802;52.832;4.758;2023-05-15T10:55:07;12.32;;;4.80;;
11490;SDS011;5802;52.832;4.758;2023-05-15T10:57:41;7.60;;;4.35;;
11490;SDS011;5802;52.832;4.758;2023-05-15T11:00:25;13.88;;;4.88;;
11490;SDS011;5802;52.832;4.758;2023-05-15T11:02:55;14.23;;;5.15;;
11490;SDS011;5802;52.832;4.758;2023-05-15T11:05:24;11.75;;;4.63;;
11490;SDS011;5802;52.832;4.758;2023-05-15T11:10:51;8.73;;;4.63;;
11490;SDS011;5802;52.832;4.758;2023-05-15T11:13:18;14.50;;;4.78;;
11490;SDS011;5802;52.832;4.758;2023-05-15T11:15:45;11.07;;;4.47;;
11490;SDS011;5802;52.832;4.758;2023-05-15T11:18:13;8.10;;;4.15;;
11490;SDS011;5802;52.832;4.758;2023-05-15T11:20:42;5.63;;;4.25;;
11490;SDS011;5802;52.832;4.758;2023-05-15T11:23:36;4.70;;;3.90;;
11490;SDS011;5802;52.832;4.758;2023-05-15T11:26:04;8.57;;;4.57;;
11490;SDS011;5802;52.832;4.758;2023-05-15T11:28:30;6.40;;;4.43;;
11490;SDS011;5802;52.832;4.758;2023-05-15T11:31:06;6.63;;;4.60;;
11490;SDS011;5802;52.832;4.758;2023-05-15T11:33:33;5.95;;;4.70;;
11490;SDS011;5802;52.832;4.758;2023-05-15T11:36:05;5.90;;;4.90;;
11490;SDS011;5802;52.832;4.758;2023-05-15T11:38:35;8.57;;;4.50;;
11490;SDS011;5802;52.832;4.758;2023-05-15T11:41:11;6.80;;;5.20;;
11490;SDS011;5802;52.832;4.758;2023-05-15T11:43:42;6.00;;;4.53;;
11490;SDS011;5802;52.832;4.758;2023-05-15T11:46:10;6.40;;;4.60;;
11490;SDS011;5802;52.832;4.758;2023-05-15T11:48:38;4.78;;;4.28;;
11490;SDS011;5802;52.832;4.758;2023-05-15T11:51:12;4.80;;;4.25;;
11490;SDS011;5802;52.832;4.758;2023-05-15T11:53:42;8.23;;;4.15;;
11490;SDS011;5802;52.832;4.758;2023-05-15T11:56:11;5.65;;;4.88;;
11490;SDS011;5802;52.832;4.758;2023-05-15T11:58:43;8.02;;;4.43;;
11490;SDS011;5802;52.832;4.758;2023-05-15T12:01:10;7.03;;;4.65;;
11490;SDS011;5802;52.832;4.758;2023-05-15T12:03:37;9.63;;;4.53;;
11490;SDS011;5802;52.832;4.758;2023-05-15T12:06:03;6.28;;;4.47;;
11490;SDS011;5802;52.832;4.758;2023-05-15T12:08:32;5.10;;;4.60;;
11490;SDS011;5802;52.832;4.758;2023-05-15T12:11:01;4.47;;;4.07;;
11490;SDS011;5802;52.832;4.758;2023-05-15T12:13:29;7.63;;;4.70;;
11490;SDS011;5802;52.832;4.758;2023-05-15T12:15:57;6.18;;;4.47;;
11490;SDS011;5802;52.832;4.758;2023-05-15T12:18:24;7.70;;;4.72;;
11490;SDS011;5802;52.832;4.758;2023-05-15T12:20:51;7.00;;;4.45;;
11490;SDS011;5802;52.832;4.758;2023-05-15T12:23:19;5.03;;;4.40;;
11490;SDS011;5802;52.832;4.758;2023-05-15T12:25:48;5.50;;;4.47;;
11490;SDS011;5802;52.832;4.758;2023-05-15T12:28:20;5.07;;;4.32;;
11490;SDS011;5802;52.832;4.758;2023-05-15T12:30:47;5.82;;;4.30;;
11490;SDS011;5802;52.832;4.758;2023-05-15T12:33:14;8.15;;;4.53;;
11490;SDS011;5802;52.832;4.758;2023-05-15T12:35:42;5.40;;;3.92;;
11490;SDS011;5802;52.832;4.758;2023-05-15T12:38:13;7.13;;;4.10;;
11490;SDS011;5802;52.832;4.758;2023-05-15T12:40:40;5.53;;;4.03;;
11490;SDS011;5802;52.832;4.758;2023-05-15T12:43:11;7.97;;;3.92;;
11490;SDS011;5802;52.832;4.758;2023-05-15T12:45:38;6.57;;;3.50;;
11490;SDS011;5802;52.832;4.758;2023-05-15T12:48:06;8.60;;;3.65;;
11490;SDS011;5802;52.832;4.758;2023-05-15T12:50:38;5.63;;;3.10;;
11490;SDS011;5802;52.832;4.758;2023-05-15T12:53:05;11.07;;;3.72;;
11490;SDS011;5802;52.832;4.758;2023-05-15T12:55:32;8.73;;;3.40;;
11490;SDS011;5802;52.832;4.758;2023-05-15T12:58:00;8.25;;;3.25;;
11490;SDS011;5802;52.832;4.758;2023-05-15T13:00:32;4.57;;;2.95;;
11490;SDS011;5802;52.832;4.758;2023-05-15T13:03:00;5.80;;;3.80;;
11490;SDS011;5802;52.832;4.758;2023-05-15T13:05:27;5.88;;;2.97;;
11490;SDS011;5802;52.832;4.758;2023-05-15T13:07:56;5.05;;;2.83;;
11490;SDS011;5802;52.832;4.758;2023-05-15T13:10:24;6.07;;;2.72;;
11490;SDS011;5802;52.832;4.758;2023-05-15T13:12:51;5.97;;;2.97;;
11490;SDS011;5802;52.832;4.758;2023-05-15T13:15:23;7.07;;;2.80;;
11490;SDS011;5802;52.832;4.758;2023-05-15T13:17:56;5.53;;;2.70;;
11490;SDS011;5802;52.832;4.758;2023-05-15T13:20:24;4.38;;;2.45;;
11490;SDS011;5802;52.832;4.758;2023-05-15T13:22:52;3.42;;;2.42;;
11490;SDS011;5802;52.832;4.758;2023-05-15T13:25:19;5.20;;;2.90;;
11490;SDS011;5802;52.832;4.758;2023-05-15T13:27:46;4.85;;;2.42;;
11490;SDS011;5802;52.832;4.758;2023-05-15T13:30:14;4.72;;;2.25;;
11490;SDS011;5802;52.832;4.758;2023-05-15T13:32:41;5.60;;;2.33;;
11490;SDS011;5802;52.832;4.758;2023-05-15T13:35:10;5.10;;;2.60;;
11490;SDS011;5802;52.832;4.758;2023-05-15T13:37:37;3.38;;;2.35;;
11490;SDS011;5802;52.832;4.758;2023-05-15T13:40:04;5.55;;;2.40;;
11490;SDS011;5802;52.832;4.758;2023-05-15T13:42:34;4.47;;;2.38;;
11490;SDS011;5802;52.832;4.758;2023-05-15T13:45:02;2.80;;;2.00;;
11490;SDS011;5802;52.832;4.758;2023-05-15T13:47:29;3.30;;;2.00;;
11490;SDS011;5802;52.832;4.758;2023-05-15T13:49:56;4.97;;;2.20;;
11490;SDS011;5802;52.832;4.758;2023-05-15T13:52:24;3.65;;;2.42;;
11490;SDS011;5802;52.832;4.758;2023-05-15T13:54:51;4.32;;;2.50;;
11490;SDS011;5802;52.832;4.758;2023-05-15T13:57:18;6.32;;;2.60;;
11490;SDS011;5802;52.832;4.758;2023-05-15T13:59:45;4.45;;;2.53;;
11490;SDS011;5802;52.832;4.758;2023-05-15T14:02:12;4.53;;;2.80;;
11490;SDS011;5802;52.832;4.758;2023-05-15T14:04:38;5.78;;;2.10;;
11490;SDS011;5802;52.832;4.758;2023-05-15T14:07:05;7.90;;;2.22;;
11490;SDS011;5802;52.832;4.758;2023-05-15T14:09:33;3.80;;;2.10;;
11490;SDS011;5802;52.832;4.758;2023-05-15T14:12:00;5.03;;;2.45;;
11490;SDS011;5802;52.832;4.758;2023-05-15T14:14:27;10.02;;;1.90;;
11490;SDS011;5802;52.832;4.758;2023-05-15T14:16:59;5.10;;;2.08;;
11490;SDS011;5802;52.832;4.758;2023-05-15T14:19:26;3.53;;;2.05;;
11490;SDS011;5802;52.832;4.758;2023-05-15T14:21:53;5.47;;;2.58;;
11490;SDS011;5802;52.832;4.758;2023-05-15T14:24:20;9.48;;;2.20;;
11490;SDS011;5802;52.832;4.758;2023-05-15T14:26:48;10.98;;;2.65;;
11490;SDS011;5802;52.832;4.758;2023-05-15T14:29:14;3.70;;;2.00;;
11490;SDS011;5802;52.832;4.758;2023-05-15T14:31:41;3.72;;;2.00;;
11490;SDS011;5802;52.832;4.758;2023-05-15T14:34:08;6.30;;;2.17;;
11490;SDS011;5802;52.832;4.758;2023-05-15T14:36:35;4.15;;;2.25;;
11490;SDS011;5802;52.832;4.758;2023-05-15T14:39:07;6.25;;;1.90;;
11490;SDS011;5802;52.832;4.758;2023-05-15T14:41:34;3.30;;;1.90;;
11490;SDS011;5802;52.832;4.758;2023-05-15T14:44:02;5.75;;;1.83;;
11490;SDS011;5802;52.832;4.758;2023-05-15T14:46:29;9.57;;;2.22;;
11490;SDS011;5802;52.832;4.758;2023-05-15T14:48:56;2.58;;;1.95;;
11490;SDS011;5802;52.832;4.758;2023-05-15T14:51:22;5.55;;;1.90;;
11490;SDS011;5802;52.832;4.758;2023-05-15T14:53:49;6.65;;;1.92;;
11490;SDS011;5802;52.832;4.758;2023-05-15T14:56:16;4.03;;;2.05;;
11490;SDS011;5802;52.832;4.758;2023-05-15T14:58:42;7.20;;;1.98;;
11490;SDS011;5802;52.832;4.758;2023-05-15T15:01:11;2.72;;;1.90;;
11490;SDS011;5802;52.832;4.758;2023-05-15T15:03:38;3.67;;;1.92;;
11490;SDS011;5802;52.832;4.758;2023-05-15T15:06:06;3.65;;;1.90;;
11490;SDS011;5802;52.832;4.758;2023-05-15T15:08:33;3.45;;;1.92;;
11490;SDS011;5802;52.832;4.758;2023-05-15T15:11:00;4.68;;;2.10;;
11490;SDS011;5802;52.832;4.758;2023-05-15T15:13:26;4.80;;;1.92;;